Terminal Aerodrome Forecast
Issued by NWS Twin Cities, MN

Home | Current Version | Previous Version | Graphics & Text | Print | Product List | Glossary On
Versions: 1 2 3 4 5 6 7 8 9 10 11 12 13 14 15
243
FTUS43 KMPX 082320
TAFSTC
TAF
KSTC 082320Z 0900/0924 33016G25KT P6SM OVC030
      TEMPO 0900/0904 4SM -SN OVC025
     FM090900 32015G22KT P6SM SCT030
     FM091300 32013G19KT P6SM SKC=

USA.gov is the U.S. government's official web portal to all federal, state and local government web resources and services.